createdAt,value
2023-02-20T00:02:46.005Z,10.44
2023-02-20T00:05:48.768Z,10.46
2023-02-20T00:08:51.332Z,10.37
2023-02-20T00:11:54.200Z,10.33
2023-02-20T00:14:58.069Z,10.41
2023-02-20T00:18:00.716Z,10.31
2023-02-20T00:21:03.235Z,10.43
2023-02-20T00:24:06.652Z,10.45
2023-02-20T00:27:09.462Z,10.53
2023-02-20T00:30:16.967Z,10.44
2023-02-20T00:33:19.475Z,10.39
2023-02-20T00:36:22.848Z,10.22
2023-02-20T00:39:25.547Z,10.26
2023-02-20T00:42:28.659Z,10.19
2023-02-20T00:45:32.548Z,10.30
2023-02-20T00:48:35.126Z,10.44
2023-02-20T00:51:37.796Z,10.49
2023-02-20T00:54:40.439Z,10.40
2023-02-20T00:57:43.586Z,10.42
2023-02-20T01:00:47.453Z,10.29
2023-02-20T01:03:50.193Z,10.26
2023-02-20T01:06:52.758Z,10.10
2023-02-20T01:09:55.271Z,9.85
2023-02-20T01:12:57.785Z,9.60
2023-02-20T01:16:01.866Z,9.46
2023-02-20T01:19:04.765Z,9.30
2023-02-20T01:22:08.973Z,9.25
2023-02-20T01:25:11.847Z,9.28
2023-02-20T01:28:14.682Z,9.29
2023-02-20T01:31:19.761Z,9.24
2023-02-20T01:34:22.905Z,9.19
2023-02-20T01:37:25.438Z,9.25
2023-02-20T01:40:28.934Z,9.18
2023-02-20T01:43:31.498Z,9.14
2023-02-20T01:46:53.946Z,9.03
2023-02-20T01:49:59.270Z,9.05
2023-02-20T01:53:04.561Z,9.08
2023-02-20T01:56:10.044Z,9.01
2023-02-20T01:59:12.929Z,8.94
2023-02-20T02:02:17.214Z,8.85
2023-02-20T02:05:20.383Z,8.82
2023-02-20T02:08:24.774Z,8.78
2023-02-20T02:11:28.391Z,8.82
2023-02-20T02:14:31.174Z,8.82
2023-02-20T02:17:56.593Z,8.95
2023-02-20T02:21:26.061Z,9.09
2023-02-20T02:24:51.007Z,9.27
2023-02-20T02:28:23.757Z,9.51
2023-02-20T02:31:40.602Z,9.70
2023-02-20T02:35:24.939Z,9.82
2023-02-20T02:38:32.872Z,9.89
2023-02-20T02:41:41.647Z,9.89
2023-02-20T02:44:47.588Z,9.85
2023-02-20T02:47:53.663Z,9.82
2023-02-20T02:51:02.063Z,9.90
2023-02-20T02:54:11.162Z,9.93
2023-02-20T02:57:22.973Z,9.93
2023-02-20T03:00:27.813Z,9.91
2023-02-20T03:03:33.156Z,9.79
2023-02-20T03:06:38.680Z,9.66
2023-02-20T03:09:46.694Z,9.52
2023-02-20T03:12:50.527Z,9.60
2023-02-20T03:15:53.386Z,9.60
2023-02-20T03:18:57.442Z,9.61
2023-02-20T03:22:01.656Z,9.62
2023-02-20T03:25:09.042Z,9.49
2023-02-20T03:28:13.303Z,9.46
2023-02-20T03:31:18.503Z,9.47
2023-02-20T03:34:42.164Z,9.37
2023-02-20T03:38:03.991Z,9.45
2023-02-20T03:41:26.231Z,9.54
2023-02-20T03:44:29.634Z,9.52
2023-02-20T03:47:35.472Z,9.54
2023-02-20T03:50:55.658Z,9.50
2023-02-20T03:53:58.286Z,9.37
2023-02-20T03:57:04.510Z,9.23
2023-02-20T04:00:10.404Z,9.25
2023-02-20T04:03:16.615Z,9.28
2023-02-20T04:06:20.041Z,9.19
2023-02-20T04:09:25.192Z,8.98
2023-02-20T04:12:31.662Z,8.81
2023-02-20T04:15:34.612Z,8.66
2023-02-20T04:18:37.460Z,8.63
2023-02-20T04:21:42.926Z,8.53
2023-02-20T04:24:49.539Z,8.35
2023-02-20T04:27:54.327Z,8.23
2023-02-20T04:30:57.000Z,8.14
2023-02-20T04:33:59.710Z,8.02
2023-02-20T04:37:08.434Z,8.05
2023-02-20T04:40:11.609Z,8.15
2023-02-20T04:43:15.537Z,8.08
2023-02-20T04:46:18.839Z,8.11
2023-02-20T04:49:21.403Z,8.02
2023-02-20T04:52:24.663Z,7.95
2023-02-20T04:55:27.893Z,7.88
2023-02-20T04:58:34.117Z,7.82
2023-02-20T05:01:36.707Z,7.68
2023-02-20T05:04:39.336Z,7.51
2023-02-20T05:07:41.915Z,7.37
2023-02-20T05:10:44.439Z,7.36
2023-02-20T05:13:48.341Z,7.38
2023-02-20T05:16:51.689Z,7.36
2023-02-20T05:19:54.255Z,7.35
2023-02-20T05:22:55.893Z,7.34
2023-02-20T05:25:58.430Z,7.15
2023-02-20T05:29:02.273Z,7.12
2023-02-20T05:32:05.113Z,7.09
2023-02-20T05:35:07.872Z,7.05
2023-02-20T05:38:10.397Z,7.10
2023-02-20T05:41:12.921Z,7.07
2023-02-20T05:44:16.938Z,7.06
2023-02-20T05:47:19.475Z,7.04
2023-02-20T05:50:22.001Z,6.96
2023-02-20T05:53:24.572Z,6.97
2023-02-20T05:56:27.912Z,6.99
2023-02-20T05:59:32.044Z,6.90
2023-02-20T06:02:34.636Z,6.78
2023-02-20T06:05:37.272Z,6.67
2023-02-20T06:08:40.632Z,6.73
2023-02-20T06:11:48.868Z,6.87
2023-02-20T06:14:52.880Z,7.08
2023-02-20T06:17:55.628Z,7.19
2023-02-20T06:20:58.239Z,7.23
2023-02-20T06:24:00.786Z,7.24
2023-02-20T06:27:03.504Z,7.41
2023-02-20T06:30:08.375Z,7.61
2023-02-20T06:36:40.343Z,7.65
2023-02-20T06:39:45.839Z,7.76
2023-02-20T06:42:48.541Z,7.79
2023-02-20T06:45:52.358Z,7.78
2023-02-20T06:48:57.869Z,7.79
2023-02-20T06:52:03.085Z,7.78
2023-02-20T06:55:07.096Z,7.83
2023-02-20T06:58:12.039Z,7.95
2023-02-20T07:01:17.103Z,7.96
2023-02-20T07:04:32.632Z,8.11
2023-02-20T07:07:35.456Z,8.17
2023-02-20T07:10:38.037Z,8.18
2023-02-20T07:13:41.357Z,8.33
2023-02-20T07:16:46.009Z,8.42
2023-02-20T07:20:06.455Z,8.43
2023-02-20T07:23:10.652Z,8.48
2023-02-20T07:26:19.215Z,8.71
2023-02-20T07:29:21.753Z,8.72
2023-02-20T07:32:26.785Z,8.77
2023-02-20T07:35:29.417Z,8.81
2023-02-20T07:38:31.995Z,8.85
2023-02-20T07:41:35.802Z,9.01
2023-02-20T07:44:38.407Z,9.08
2023-02-20T07:47:43.351Z,9.04
2023-02-20T07:54:05.389Z,9.22
2023-02-20T07:57:07.975Z,9.33
2023-02-20T08:00:14.699Z,9.40
2023-02-20T08:03:18.756Z,9.50
2023-02-20T08:06:21.649Z,9.59
2023-02-20T08:09:24.198Z,9.68
2023-02-20T08:12:26.771Z,9.75
2023-02-20T08:15:29.429Z,9.81
2023-02-20T08:18:33.256Z,9.78
2023-02-20T08:21:35.903Z,10.04
2023-02-20T08:24:38.686Z,10.01
2023-02-20T08:27:43.636Z,10.04
2023-02-20T08:30:46.355Z,10.12
2023-02-20T08:38:07.458Z,10.55
2023-02-20T08:41:12.530Z,10.40
2023-02-20T08:44:26.845Z,10.49
2023-02-20T08:47:32.345Z,10.75
2023-02-20T08:50:49.558Z,10.94
2023-02-20T08:53:59.140Z,11.01
2023-02-20T08:57:03.627Z,11.08
2023-02-20T09:00:16.544Z,11.33
2023-02-20T09:03:19.308Z,11.36
2023-02-20T09:06:26.810Z,11.46
2023-02-20T09:09:40.362Z,11.54
2023-02-20T09:12:48.581Z,11.65
2023-02-20T09:15:54.162Z,11.85
2023-02-20T09:18:57.691Z,11.97
2023-02-20T09:22:07.689Z,12.11
2023-02-20T09:25:14.783Z,12.27
2023-02-20T09:28:21.796Z,12.34
2023-02-20T09:31:26.707Z,12.69
2023-02-20T09:34:31.511Z,13.07
2023-02-20T09:37:37.009Z,13.32
2023-02-20T09:40:47.035Z,13.60
2023-02-20T09:43:56.626Z,13.96
2023-02-20T09:47:17.351Z,14.25
2023-02-20T09:50:41.106Z,14.83
2023-02-20T09:53:59.668Z,15.25
2023-02-20T09:57:12.453Z,14.79
2023-02-20T10:00:21.390Z,14.64
2023-02-20T10:03:39.438Z,14.42
2023-02-20T10:06:44.545Z,14.31
2023-02-20T10:09:55.017Z,14.27
2023-02-20T10:13:17.497Z,14.60
2023-02-20T10:16:30.468Z,14.16
2023-02-20T10:19:38.036Z,13.86
2023-02-20T10:22:50.059Z,13.32
2023-02-20T10:25:56.751Z,13.28
2023-02-20T10:32:48.477Z,13.73
2023-02-20T10:35:55.571Z,13.86
2023-02-20T10:39:06.421Z,13.63
2023-02-20T10:42:15.267Z,13.71
2023-02-20T10:45:28.535Z,13.76
2023-02-20T10:48:34.065Z,13.92
2023-02-20T10:51:42.385Z,13.90
2023-02-20T10:55:00.431Z,14.11
2023-02-20T10:58:14.313Z,14.27
2023-02-20T11:01:23.216Z,14.36
2023-02-20T11:04:28.723Z,14.12
2023-02-20T11:07:31.298Z,14.46
2023-02-20T11:10:35.644Z,14.47
2023-02-20T11:13:48.819Z,14.51
2023-02-20T11:16:56.787Z,14.70
2023-02-20T11:20:01.454Z,14.83
2023-02-20T11:23:04.584Z,14.92
2023-02-20T11:26:25.226Z,15.15
2023-02-20T11:29:34.177Z,15.29
2023-02-20T11:32:38.869Z,15.49
2023-02-20T11:35:42.118Z,15.37
2023-02-20T11:38:45.226Z,15.20
2023-02-20T11:41:49.686Z,15.22
2023-02-20T11:45:12.822Z,15.04
2023-02-20T11:48:19.460Z,15.06
2023-02-20T11:51:33.697Z,15.19
2023-02-20T11:54:36.290Z,15.25
2023-02-20T11:57:43.757Z,15.03
2023-02-20T12:00:47.625Z,15.23
2023-02-20T12:03:59.955Z,15.44
2023-02-20T12:07:19.326Z,15.63
2023-02-20T12:10:40.574Z,15.62
2023-02-20T12:13:45.273Z,15.50
2023-02-20T12:17:08.620Z,15.64
2023-02-20T12:20:25.119Z,15.87
2023-02-20T12:23:54.888Z,15.98
2023-02-20T12:27:05.125Z,15.74
2023-02-20T12:30:46.666Z,15.95
2023-02-20T12:34:22.571Z,16.21
2023-02-20T12:37:36.732Z,16.26
2023-02-20T12:40:42.145Z,16.28
2023-02-20T12:43:49.640Z,16.29
2023-02-20T12:46:58.544Z,16.68
2023-02-20T12:50:17.709Z,16.70
2023-02-20T12:53:37.394Z,16.71
2023-02-20T12:57:04.542Z,17.02
2023-02-20T13:00:48.826Z,16.82
2023-02-20T13:04:31.030Z,17.20
2023-02-20T13:07:56.647Z,17.53
2023-02-20T13:11:24.062Z,18.65
2023-02-20T13:14:39.796Z,25.75
2023-02-20T13:18:01.048Z,29.59
2023-02-20T13:21:07.039Z,29.65
2023-02-20T13:24:46.259Z,31.92
2023-02-20T13:28:12.540Z,31.12
2023-02-20T13:31:22.855Z,30.85
2023-02-20T13:34:34.487Z,33.73
2023-02-20T13:38:08.367Z,37.67
2023-02-20T13:45:55.182Z,35.07
2023-02-20T13:48:58.110Z,35.83
2023-02-20T13:52:07.246Z,34.57
2023-02-20T13:55:54.172Z,33.38
2023-02-20T13:59:07.367Z,36.41
2023-02-20T14:06:44.069Z,36.59
2023-02-20T14:10:01.496Z,34.78
2023-02-20T14:13:07.580Z,36.61
2023-02-20T14:16:55.050Z,34.86
2023-02-20T14:20:13.471Z,36.15
2023-02-20T14:23:26.472Z,35.42
2023-02-20T14:26:31.637Z,35.36
2023-02-20T14:29:37.307Z,33.52
2023-02-20T14:32:44.131Z,32.93
2023-02-20T14:35:52.441Z,36.78
2023-02-20T14:39:08.248Z,36.65
2023-02-20T14:42:16.221Z,34.70
2023-02-20T14:45:23.060Z,24.29
2023-02-20T14:48:27.954Z,22.09
2023-02-20T14:51:30.458Z,20.58
2023-02-20T14:54:34.386Z,19.60
2023-02-20T14:57:37.246Z,18.90
2023-02-20T15:00:40.600Z,18.46
2023-02-20T15:03:43.751Z,18.20
2023-02-20T15:06:49.179Z,18.55
2023-02-20T15:09:56.480Z,21.75
2023-02-20T15:13:05.064Z,28.78
2023-02-20T15:16:09.635Z,29.23
2023-02-20T15:19:22.091Z,31.10
2023-02-20T15:22:29.928Z,30.91
2023-02-20T15:25:34.916Z,32.40
2023-02-20T15:28:37.501Z,32.73
2023-02-20T15:31:40.674Z,33.74
2023-02-20T15:34:43.090Z,32.48
2023-02-20T15:37:49.483Z,30.13
2023-02-20T15:40:57.327Z,24.86
2023-02-20T15:44:00.272Z,21.83
2023-02-20T15:47:02.935Z,19.32
2023-02-20T15:50:06.607Z,18.49
2023-02-20T15:53:11.692Z,18.38
2023-02-20T15:56:16.690Z,17.80
2023-02-20T15:59:19.811Z,17.21
2023-02-20T16:02:24.805Z,16.79
2023-02-20T16:05:27.793Z,16.45
2023-02-20T16:08:30.362Z,16.28
2023-02-20T16:11:39.602Z,16.10
2023-02-20T16:14:42.413Z,15.84
2023-02-20T16:17:45.620Z,15.75
2023-02-20T16:20:48.436Z,15.56
2023-02-20T16:23:51.803Z,15.55
2023-02-20T16:26:56.329Z,15.32
2023-02-20T16:30:30.690Z,15.11
2023-02-20T16:33:53.028Z,14.68
2023-02-20T16:37:08.217Z,14.41
2023-02-20T16:40:18.478Z,14.08
2023-02-20T16:43:24.018Z,13.73
2023-02-20T16:46:37.507Z,13.76
2023-02-20T16:49:43.229Z,13.58
2023-02-20T16:52:46.093Z,13.32
2023-02-20T16:55:49.400Z,13.08
2023-02-20T16:58:53.267Z,12.86
2023-02-20T17:01:55.884Z,12.61
2023-02-20T17:05:08.305Z,12.40
2023-02-20T17:08:12.752Z,12.37
2023-02-20T17:11:16.023Z,12.32
2023-02-20T17:14:20.012Z,12.08
2023-02-20T17:17:22.656Z,11.92
2023-02-20T17:20:26.884Z,11.77
2023-02-20T17:23:29.372Z,11.62
2023-02-20T17:26:32.067Z,11.57
2023-02-20T17:29:35.975Z,11.42
2023-02-20T17:32:38.612Z,11.35
2023-02-20T17:35:41.347Z,11.20
2023-02-20T17:38:44.314Z,10.97
2023-02-20T17:41:47.336Z,10.82
2023-02-20T17:44:51.683Z,10.78
2023-02-20T17:47:54.545Z,10.83
2023-02-20T17:50:57.414Z,10.84
2023-02-20T17:53:59.973Z,10.63
2023-02-20T17:57:02.866Z,10.50
2023-02-20T18:00:08.819Z,10.40
2023-02-20T18:03:11.334Z,10.25
2023-02-20T18:06:14.898Z,10.16
2023-02-20T18:09:18.770Z,10.02
2023-02-20T18:12:21.432Z,9.98
2023-02-20T18:15:25.478Z,9.92
2023-02-20T18:18:29.683Z,9.87
2023-02-20T18:21:32.524Z,9.83
2023-02-20T18:24:36.495Z,9.67
2023-02-20T18:27:39.299Z,9.55
2023-02-20T18:30:45.159Z,9.61
2023-02-20T18:33:47.803Z,9.46
2023-02-20T18:36:50.900Z,9.42
2023-02-20T18:39:53.961Z,9.40
2023-02-20T18:42:56.825Z,9.28
2023-02-20T18:46:01.002Z,9.36
2023-02-20T18:49:05.191Z,9.33
2023-02-20T18:52:08.359Z,9.29
2023-02-20T18:55:17.410Z,9.24
2023-02-20T18:58:19.967Z,9.20
2023-02-20T19:01:24.681Z,9.12
2023-02-20T19:04:27.468Z,9.09
2023-02-20T19:07:30.415Z,9.12
2023-02-20T19:10:33.408Z,9.12
2023-02-20T19:13:35.981Z,9.06
2023-02-20T19:16:39.968Z,9.00
2023-02-20T19:19:43.052Z,8.90
2023-02-20T19:22:45.630Z,8.78
2023-02-20T19:25:48.954Z,8.59
2023-02-20T19:28:52.214Z,8.49
2023-02-20T19:31:56.515Z,8.46
2023-02-20T19:34:59.138Z,8.36
2023-02-20T19:38:01.883Z,8.31
2023-02-20T19:41:04.568Z,8.36
2023-02-20T19:44:08.202Z,8.31
2023-02-20T19:47:13.442Z,8.25
2023-02-20T19:50:16.741Z,8.14
2023-02-20T19:53:19.330Z,8.09
2023-02-20T19:56:23.113Z,8.08
2023-02-20T19:59:26.715Z,8.14
2023-02-20T20:02:31.284Z,8.13
2023-02-20T20:05:34.834Z,7.93
2023-02-20T20:08:40.289Z,7.81
2023-02-20T20:11:46.885Z,7.87
2023-02-20T20:14:49.569Z,7.91
2023-02-20T20:17:55.088Z,7.90
2023-02-20T20:20:58.023Z,8.04
2023-02-20T20:24:01.139Z,8.04
2023-02-20T20:27:04.381Z,7.96
2023-02-20T20:30:09.427Z,7.86
2023-02-20T20:33:13.474Z,7.83
2023-02-20T20:36:16.465Z,7.78
2023-02-20T20:42:46.082Z,7.70
2023-02-20T20:45:48.856Z,7.74
2023-02-20T20:48:52.944Z,7.73
2023-02-20T20:51:55.516Z,7.64
2023-02-20T20:55:03.634Z,7.68
2023-02-20T20:58:06.317Z,7.64
2023-02-20T21:01:09.061Z,7.61
2023-02-20T21:04:13.647Z,7.55
2023-02-20T21:07:17.070Z,7.41
2023-02-20T21:10:20.159Z,7.26
2023-02-20T21:13:22.953Z,7.16
2023-02-20T21:16:25.619Z,7.18
2023-02-20T21:19:29.533Z,7.24
2023-02-20T21:22:32.137Z,7.30
2023-02-20T21:25:34.708Z,7.20
2023-02-20T21:28:37.416Z,7.14
2023-02-20T21:31:42.048Z,7.08
2023-02-20T21:34:46.666Z,7.05
2023-02-20T21:37:49.693Z,7.16
2023-02-20T21:40:52.230Z,7.22
2023-02-20T21:44:12.289Z,7.16
2023-02-20T21:47:15.690Z,7.14
2023-02-20T21:50:20.277Z,7.11
2023-02-20T21:53:22.984Z,7.11
2023-02-20T21:56:25.875Z,6.91
2023-02-20T21:59:27.443Z,6.68
2023-02-20T22:02:29.150Z,6.62
2023-02-20T22:05:32.387Z,6.78
2023-02-20T22:08:52.658Z,6.87
2023-02-20T22:12:12.997Z,6.85
2023-02-20T22:15:33.143Z,6.81
2023-02-20T22:18:53.372Z,6.72
2023-02-20T22:22:18.739Z,6.68
2023-02-20T22:25:38.976Z,6.52
2023-02-20T22:28:59.195Z,6.42
2023-02-20T22:32:19.486Z,6.49
2023-02-20T22:35:39.736Z,6.53
2023-02-20T22:39:01.598Z,6.51
2023-02-20T22:42:29.582Z,6.43
2023-02-20T22:45:54.549Z,6.16
2023-02-20T22:49:14.980Z,5.94
2023-02-20T22:52:35.485Z,6.08
2023-02-20T22:55:56.945Z,6.15
2023-02-20T22:59:17.296Z,6.08
2023-02-20T23:02:37.484Z,6.03
2023-02-20T23:06:04.968Z,5.99
2023-02-20T23:09:32.141Z,6.03
2023-02-20T23:12:53.754Z,5.99
2023-02-20T23:16:14.207Z,6.10
2023-02-20T23:19:34.770Z,6.29
2023-02-20T23:22:54.995Z,6.16
2023-02-20T23:26:15.366Z,6.01
2023-02-20T23:29:36.959Z,5.98
2023-02-20T23:32:59.011Z,5.94
2023-02-20T23:36:19.384Z,5.90
2023-02-20T23:39:39.771Z,5.86
2023-02-20T23:43:00.105Z,5.86
2023-02-20T23:46:22.692Z,5.80
2023-02-20T23:49:43.319Z,5.70
2023-02-20T23:53:04.991Z,5.55
2023-02-20T23:56:25.841Z,5.59
2023-02-20T23:59:46.412Z,5.58
